sensor_id;sensor_type;location;lat;lon;timestamp;temperature;humidity
6407;DHT22;3236;51.022;6.818;2022-12-24T00:01:01;10.90;99.90
6407;DHT22;3236;51.022;6.818;2022-12-24T00:03:36;10.90;99.90
6407;DHT22;3236;51.022;6.818;2022-12-24T00:06:04;10.80;99.90
6407;DHT22;3236;51.022;6.818;2022-12-24T00:08:32;10.50;99.90
6407;DHT22;3236;51.022;6.818;2022-12-24T00:11:00;10.80;99.90
6407;DHT22;3236;51.022;6.818;2022-12-24T00:13:27;10.80;99.90
6407;DHT22;3236;51.022;6.818;2022-12-24T00:15:59;10.90;99.90
6407;DHT22;3236;51.022;6.818;2022-12-24T00:18:26;10.80;99.90
6407;DHT22;3236;51.022;6.818;2022-12-24T00:20:54;10.80;99.90
6407;DHT22;3236;51.022;6.818;2022-12-24T00:25:50;10.80;99.90
6407;DHT22;3236;51.022;6.818;2022-12-24T00:33:12;10.60;99.90
6407;DHT22;3236;51.022;6.818;2022-12-24T00:35:40;10.60;99.90
6407;DHT22;3236;51.022;6.818;2022-12-24T00:38:08;10.60;99.90
6407;DHT22;3236;51.022;6.818;2022-12-24T00:40:35;10.90;99.90
6407;DHT22;3236;51.022;6.818;2022-12-24T00:50:28;10.70;99.90
6407;DHT22;3236;51.022;6.818;2022-12-24T00:52:55;10.80;99.90
6407;DHT22;3236;51.022;6.818;2022-12-24T00:55:22;10.90;99.90
6407;DHT22;3236;51.022;6.818;2022-12-24T00:57:50;10.90;99.90
6407;DHT22;3236;51.022;6.818;2022-12-24T01:00:19;10.80;99.90
6407;DHT22;3236;51.022;6.818;2022-12-24T01:05:19;10.90;99.90
6407;DHT22;3236;51.022;6.818;2022-12-24T01:07:48;10.90;99.90
6407;DHT22;3236;51.022;6.818;2022-12-24T01:12:51;10.70;99.90
6407;DHT22;3236;51.022;6.818;2022-12-24T01:15:23;11.00;99.90
6407;DHT22;3236;51.022;6.818;2022-12-24T01:22:46;10.80;99.90
6407;DHT22;3236;51.022;6.818;2022-12-24T01:25:14;11.10;99.90
6407;DHT22;3236;51.022;6.818;2022-12-24T01:27:42;10.80;99.90
6407;DHT22;3236;51.022;6.818;2022-12-24T01:30:12;10.70;99.90
6407;DHT22;3236;51.022;6.818;2022-12-24T01:42:52;10.90;99.90
6407;DHT22;3236;51.022;6.818;2022-12-24T01:45:43;10.70;99.90
6407;DHT22;3236;51.022;6.818;2022-12-24T01:48:19;10.80;99.90
6407;DHT22;3236;51.022;6.818;2022-12-24T01:50:49;10.80;99.90
6407;DHT22;3236;51.022;6.818;2022-12-24T01:53:19;10.80;99.90
6407;DHT22;3236;51.022;6.818;2022-12-24T01:55:47;10.80;99.90
6407;DHT22;3236;51.022;6.818;2022-12-24T01:58:17;10.60;99.90
6407;DHT22;3236;51.022;6.818;2022-12-24T02:00:47;11.50;99.90
6407;DHT22;3236;51.022;6.818;2022-12-24T02:03:17;10.40;99.90
6407;DHT22;3236;51.022;6.818;2022-12-24T02:05:53;10.40;99.90
6407;DHT22;3236;51.022;6.818;2022-12-24T02:08:23;10.50;99.90
6407;DHT22;3236;51.022;6.818;2022-12-24T02:11:09;10.50;99.90
6407;DHT22;3236;51.022;6.818;2022-12-24T02:13:45;10.50;99.90
6407;DHT22;3236;51.022;6.818;2022-12-24T02:16:24;10.50;99.90
6407;DHT22;3236;51.022;6.818;2022-12-24T02:21:50;10.50;99.90
6407;DHT22;3236;51.022;6.818;2022-12-24T02:27:53;10.50;99.90
6407;DHT22;3236;51.022;6.818;2022-12-24T02:30:33;10.60;99.90
6407;DHT22;3236;51.022;6.818;2022-12-24T02:33:11;10.30;99.90
6407;DHT22;3236;51.022;6.818;2022-12-24T02:35:46;10.20;99.90
6407;DHT22;3236;51.022;6.818;2022-12-24T02:38:21;10.40;99.90
6407;DHT22;3236;51.022;6.818;2022-12-24T02:40:52;10.20;99.90
6407;DHT22;3236;51.022;6.818;2022-12-24T02:43:28;10.20;99.90
6407;DHT22;3236;51.022;6.818;2022-12-24T02:46:00;10.30;99.90
6407;DHT22;3236;51.022;6.818;2022-12-24T02:51:01;10.70;99.90
6407;DHT22;3236;51.022;6.818;2022-12-24T02:56:21;11.10;99.90
6407;DHT22;3236;51.022;6.818;2022-12-24T02:59:03;10.80;99.90
6407;DHT22;3236;51.022;6.818;2022-12-24T03:01:43;10.80;99.90
6407;DHT22;3236;51.022;6.818;2022-12-24T03:04:21;10.80;99.90
6407;DHT22;3236;51.022;6.818;2022-12-24T03:07:11;10.60;99.90
6407;DHT22;3236;51.022;6.818;2022-12-24T03:10:02;10.90;99.90
6407;DHT22;3236;51.022;6.818;2022-12-24T03:12:34;10.80;99.90
6407;DHT22;3236;51.022;6.818;2022-12-24T03:15:06;11.20;99.90
6407;DHT22;3236;51.022;6.818;2022-12-24T03:17:37;10.80;99.90
6407;DHT22;3236;51.022;6.818;2022-12-24T03:20:08;10.90;99.90
6407;DHT22;3236;51.022;6.818;2022-12-24T03:22:37;10.80;99.90
6407;DHT22;3236;51.022;6.818;2022-12-24T03:25:05;11.00;99.90
6407;DHT22;3236;51.022;6.818;2022-12-24T03:27:34;10.70;99.90
6407;DHT22;3236;51.022;6.818;2022-12-24T03:30:04;10.40;99.90
6407;DHT22;3236;51.022;6.818;2022-12-24T03:32:35;10.40;99.90
6407;DHT22;3236;51.022;6.818;2022-12-24T03:35:03;10.60;99.90
6407;DHT22;3236;51.022;6.818;2022-12-24T03:37:30;10.40;99.90
6407;DHT22;3236;51.022;6.818;2022-12-24T03:39:57;10.80;99.90
6407;DHT22;3236;51.022;6.818;2022-12-24T03:42:25;10.60;99.90
6407;DHT22;3236;51.022;6.818;2022-12-24T03:44:52;10.90;99.90
6407;DHT22;3236;51.022;6.818;2022-12-24T03:47:19;10.40;99.90
6407;DHT22;3236;51.022;6.818;2022-12-24T03:49:47;10.10;99.90
6407;DHT22;3236;51.022;6.818;2022-12-24T03:52:18;10.70;99.90
6407;DHT22;3236;51.022;6.818;2022-12-24T03:54:46;10.60;99.90
6407;DHT22;3236;51.022;6.818;2022-12-24T03:57:14;10.20;99.90
6407;DHT22;3236;51.022;6.818;2022-12-24T03:59:44;10.40;99.90
6407;DHT22;3236;51.022;6.818;2022-12-24T04:02:12;10.30;99.90
6407;DHT22;3236;51.022;6.818;2022-12-24T04:07:08;10.60;99.90
6407;DHT22;3236;51.022;6.818;2022-12-24T04:09:35;10.40;99.90
6407;DHT22;3236;51.022;6.818;2022-12-24T04:12:03;10.20;99.90
6407;DHT22;3236;51.022;6.818;2022-12-24T04:14:30;10.70;99.90
6407;DHT22;3236;51.022;6.818;2022-12-24T04:16:57;10.50;99.90
6407;DHT22;3236;51.022;6.818;2022-12-24T04:19:24;10.30;99.90
6407;DHT22;3236;51.022;6.818;2022-12-24T04:21:51;10.40;99.90
6407;DHT22;3236;51.022;6.818;2022-12-24T04:24:20;10.10;99.90
6407;DHT22;3236;51.022;6.818;2022-12-24T04:26:47;10.60;99.90
6407;DHT22;3236;51.022;6.818;2022-12-24T04:29:14;10.30;99.90
6407;DHT22;3236;51.022;6.818;2022-12-24T04:31:41;10.20;99.90
6407;DHT22;3236;51.022;6.818;2022-12-24T04:34:09;10.40;99.90
6407;DHT22;3236;51.022;6.818;2022-12-24T04:36:36;10.40;99.90
6407;DHT22;3236;51.022;6.818;2022-12-24T04:39:07;10.30;99.90
6407;DHT22;3236;51.022;6.818;2022-12-24T04:44:08;10.20;99.90
6407;DHT22;3236;51.022;6.818;2022-12-24T04:49:03;10.20;99.90
6407;DHT22;3236;51.022;6.818;2022-12-24T04:51:31;10.10;99.90
6407;DHT22;3236;51.022;6.818;2022-12-24T04:54:01;10.10;99.90
6407;DHT22;3236;51.022;6.818;2022-12-24T04:56:30;9.80;99.90
6407;DHT22;3236;51.022;6.818;2022-12-24T04:59:01;10.20;99.90
6407;DHT22;3236;51.022;6.818;2022-12-24T05:01:31;10.00;99.90
6407;DHT22;3236;51.022;6.818;2022-12-24T05:03:59;10.00;99.90
6407;DHT22;3236;51.022;6.818;2022-12-24T05:06:29;9.80;99.90
6407;DHT22;3236;51.022;6.818;2022-12-24T05:08:57;10.10;99.90
6407;DHT22;3236;51.022;6.818;2022-12-24T05:11:25;10.20;99.90
6407;DHT22;3236;51.022;6.818;2022-12-24T05:13:53;10.40;99.90
6407;DHT22;3236;51.022;6.818;2022-12-24T05:16:22;9.90;99.90
6407;DHT22;3236;51.022;6.818;2022-12-24T05:18:50;10.20;99.90
6407;DHT22;3236;51.022;6.818;2022-12-24T05:21:19;10.60;99.90
6407;DHT22;3236;51.022;6.818;2022-12-24T05:23:50;10.20;99.90
6407;DHT22;3236;51.022;6.818;2022-12-24T05:26:48;10.30;99.90
6407;DHT22;3236;51.022;6.818;2022-12-24T05:29:16;10.70;99.90
6407;DHT22;3236;51.022;6.818;2022-12-24T05:31:45;11.50;99.90
6407;DHT22;3236;51.022;6.818;2022-12-24T05:34:13;10.10;99.90
6407;DHT22;3236;51.022;6.818;2022-12-24T05:36:40;10.20;99.90
6407;DHT22;3236;51.022;6.818;2022-12-24T05:39:10;9.90;99.90
6407;DHT22;3236;51.022;6.818;2022-12-24T05:41:39;10.20;99.90
6407;DHT22;3236;51.022;6.818;2022-12-24T05:44:06;10.40;99.90
6407;DHT22;3236;51.022;6.818;2022-12-24T05:46:33;11.10;99.90
6407;DHT22;3236;51.022;6.818;2022-12-24T05:51:29;10.30;99.90
6407;DHT22;3236;51.022;6.818;2022-12-24T05:53:56;10.20;99.90
6407;DHT22;3236;51.022;6.818;2022-12-24T05:56:24;10.30;99.90
6407;DHT22;3236;51.022;6.818;2022-12-24T05:58:52;10.40;99.90
6407;DHT22;3236;51.022;6.818;2022-12-24T06:01:20;10.60;99.90
6407;DHT22;3236;51.022;6.818;2022-12-24T06:06:24;8.60;99.90
6407;DHT22;3236;51.022;6.818;2022-12-24T06:08:53;10.40;99.90
6407;DHT22;3236;51.022;6.818;2022-12-24T06:11:22;10.30;99.90
6407;DHT22;3236;51.022;6.818;2022-12-24T06:13:51;10.00;99.90
6407;DHT22;3236;51.022;6.818;2022-12-24T06:16:20;10.30;99.90
6407;DHT22;3236;51.022;6.818;2022-12-24T06:18:48;10.20;99.90
6407;DHT22;3236;51.022;6.818;2022-12-24T06:21:15;10.20;99.90
6407;DHT22;3236;51.022;6.818;2022-12-24T06:23:44;10.30;99.90
6407;DHT22;3236;51.022;6.818;2022-12-24T06:26:14;10.10;99.90
6407;DHT22;3236;51.022;6.818;2022-12-24T06:28:41;10.30;99.90
6407;DHT22;3236;51.022;6.818;2022-12-24T06:33:38;10.20;99.90
6407;DHT22;3236;51.022;6.818;2022-12-24T06:36:06;10.30;99.90
6407;DHT22;3236;51.022;6.818;2022-12-24T06:38:34;10.20;99.90
6407;DHT22;3236;51.022;6.818;2022-12-24T06:41:06;10.20;99.90
6407;DHT22;3236;51.022;6.818;2022-12-24T06:48:33;10.50;99.90
6407;DHT22;3236;51.022;6.818;2022-12-24T06:51:01;10.70;99.90
6407;DHT22;3236;51.022;6.818;2022-12-24T06:56:00;10.30;99.90
6407;DHT22;3236;51.022;6.818;2022-12-24T07:03:31;10.40;99.90
6407;DHT22;3236;51.022;6.818;2022-12-24T07:05:58;10.60;99.90
6407;DHT22;3236;51.022;6.818;2022-12-24T07:10:58;10.60;99.90
6407;DHT22;3236;51.022;6.818;2022-12-24T07:13:25;10.50;99.90
6407;DHT22;3236;51.022;6.818;2022-12-24T07:15:58;10.40;99.90
6407;DHT22;3236;51.022;6.818;2022-12-24T07:20:59;10.40;99.90
6407;DHT22;3236;51.022;6.818;2022-12-24T07:23:27;10.90;99.90
6407;DHT22;3236;51.022;6.818;2022-12-24T07:25:58;10.60;99.90
6407;DHT22;3236;51.022;6.818;2022-12-24T07:35:58;10.30;99.90
6407;DHT22;3236;51.022;6.818;2022-12-24T07:40:56;10.30;99.90
6407;DHT22;3236;51.022;6.818;2022-12-24T07:50:51;10.30;99.90
6407;DHT22;3236;51.022;6.818;2022-12-24T07:53:22;10.20;99.90
6407;DHT22;3236;51.022;6.818;2022-12-24T07:58:17;10.20;99.90
6407;DHT22;3236;51.022;6.818;2022-12-24T08:03:16;10.50;99.90
6407;DHT22;3236;51.022;6.818;2022-12-24T08:08:19;10.10;99.90
6407;DHT22;3236;51.022;6.818;2022-12-24T08:10:46;10.70;99.90
6407;DHT22;3236;51.022;6.818;2022-12-24T08:15:42;10.40;99.90
6407;DHT22;3236;51.022;6.818;2022-12-24T08:28:05;10.30;99.90
6407;DHT22;3236;51.022;6.818;2022-12-24T08:30:32;10.50;99.90
6407;DHT22;3236;51.022;6.818;2022-12-24T08:38:04;10.70;99.90
6407;DHT22;3236;51.022;6.818;2022-12-24T08:40:39;10.50;99.90
6407;DHT22;3236;51.022;6.818;2022-12-24T08:43:09;10.50;99.90
6407;DHT22;3236;51.022;6.818;2022-12-24T08:45:37;10.50;99.90
6407;DHT22;3236;51.022;6.818;2022-12-24T08:50:32;10.80;99.90
6407;DHT22;3236;51.022;6.818;2022-12-24T08:52:59;11.00;99.90
6407;DHT22;3236;51.022;6.818;2022-12-24T08:55:26;10.70;99.90
6407;DHT22;3236;51.022;6.818;2022-12-24T08:57:55;10.30;99.90
6407;DHT22;3236;51.022;6.818;2022-12-24T09:00:26;10.40;99.90
6407;DHT22;3236;51.022;6.818;2022-12-24T09:03:00;10.60;99.90
6407;DHT22;3236;51.022;6.818;2022-12-24T09:05:27;10.80;99.90
6407;DHT22;3236;51.022;6.818;2022-12-24T09:07:54;11.10;99.90
6407;DHT22;3236;51.022;6.818;2022-12-24T09:10:24;10.90;99.90
6407;DHT22;3236;51.022;6.818;2022-12-24T09:12:51;10.80;99.90
6407;DHT22;3236;51.022;6.818;2022-12-24T09:15:20;10.70;99.90
6407;DHT22;3236;51.022;6.818;2022-12-24T09:27:39;10.50;99.90
6407;DHT22;3236;51.022;6.818;2022-12-24T09:30:07;10.80;99.90
6407;DHT22;3236;51.022;6.818;2022-12-24T09:32:36;10.60;99.90
6407;DHT22;3236;51.022;6.818;2022-12-24T09:35:04;10.40;99.90
6407;DHT22;3236;51.022;6.818;2022-12-24T09:37:31;10.50;99.90
6407;DHT22;3236;51.022;6.818;2022-12-24T09:42:36;10.50;99.90
6407;DHT22;3236;51.022;6.818;2022-12-24T09:45:14;10.70;99.90
6407;DHT22;3236;51.022;6.818;2022-12-24T09:47:47;11.20;99.90
6407;DHT22;3236;51.022;6.818;2022-12-24T09:50:31;10.70;99.90
6407;DHT22;3236;51.022;6.818;2022-12-24T09:53:05;10.60;99.90
6407;DHT22;3236;51.022;6.818;2022-12-24T09:55:44;11.00;99.90
6407;DHT22;3236;51.022;6.818;2022-12-24T09:58:19;10.70;99.90
6407;DHT22;3236;51.022;6.818;2022-12-24T10:05:51;11.00;99.90
6407;DHT22;3236;51.022;6.818;2022-12-24T10:08:26;10.80;99.90
6407;DHT22;3236;51.022;6.818;2022-12-24T10:11:01;11.10;99.90
6407;DHT22;3236;51.022;6.818;2022-12-24T10:13:45;10.80;99.90
6407;DHT22;3236;51.022;6.818;2022-12-24T10:16:31;10.80;99.90
6407;DHT22;3236;51.022;6.818;2022-12-24T10:19:09;11.00;99.90
6407;DHT22;3236;51.022;6.818;2022-12-24T10:21:48;10.20;99.90
6407;DHT22;3236;51.022;6.818;2022-12-24T10:24:23;11.10;99.90
6407;DHT22;3236;51.022;6.818;2022-12-24T10:26:56;11.20;99.90
6407;DHT22;3236;51.022;6.818;2022-12-24T10:29:28;11.20;99.90
6407;DHT22;3236;51.022;6.818;2022-12-24T10:32:08;11.10;99.90
6407;DHT22;3236;51.022;6.818;2022-12-24T10:34:56;11.20;99.90
6407;DHT22;3236;51.022;6.818;2022-12-24T10:39:53;11.30;99.90
6407;DHT22;3236;51.022;6.818;2022-12-24T10:42:24;11.10;99.90
6407;DHT22;3236;51.022;6.818;2022-12-24T10:44:54;11.30;99.90
6407;DHT22;3236;51.022;6.818;2022-12-24T10:47:23;11.30;99.90
6407;DHT22;3236;51.022;6.818;2022-12-24T10:50:02;11.60;99.90
6407;DHT22;3236;51.022;6.818;2022-12-24T10:52:33;11.60;99.90
6407;DHT22;3236;51.022;6.818;2022-12-24T10:55:10;11.20;99.90
6407;DHT22;3236;51.022;6.818;2022-12-24T10:57:41;11.20;99.90
6407;DHT22;3236;51.022;6.818;2022-12-24T11:00:18;11.20;99.90
6407;DHT22;3236;51.022;6.818;2022-12-24T11:02:47;11.40;99.90
6407;DHT22;3236;51.022;6.818;2022-12-24T11:05:30;11.30;99.90
6407;DHT22;3236;51.022;6.818;2022-12-24T11:08:01;11.20;99.90
6407;DHT22;3236;51.022;6.818;2022-12-24T11:10:28;11.60;99.90
6407;DHT22;3236;51.022;6.818;2022-12-24T11:15:25;11.30;99.90
6407;DHT22;3236;51.022;6.818;2022-12-24T11:17:59;11.60;99.90
6407;DHT22;3236;51.022;6.818;2022-12-24T11:20:31;11.60;99.90
6407;DHT22;3236;51.022;6.818;2022-12-24T11:23:00;11.70;99.90
6407;DHT22;3236;51.022;6.818;2022-12-24T11:25:29;11.70;99.90
6407;DHT22;3236;51.022;6.818;2022-12-24T11:28:12;11.60;99.90
6407;DHT22;3236;51.022;6.818;2022-12-24T11:30:56;11.60;99.90
6407;DHT22;3236;51.022;6.818;2022-12-24T11:33:24;11.30;99.90
6407;DHT22;3236;51.022;6.818;2022-12-24T11:35:59;11.70;99.90
6407;DHT22;3236;51.022;6.818;2022-12-24T11:38:28;11.70;99.90
6407;DHT22;3236;51.022;6.818;2022-12-24T11:41:05;11.70;99.90
6407;DHT22;3236;51.022;6.818;2022-12-24T11:46:34;12.20;99.90
6407;DHT22;3236;51.022;6.818;2022-12-24T11:49:14;11.70;99.90
6407;DHT22;3236;51.022;6.818;2022-12-24T11:54:47;11.70;99.90
6407;DHT22;3236;51.022;6.818;2022-12-24T11:57:20;11.60;99.90
6407;DHT22;3236;51.022;6.818;2022-12-24T11:59:50;11.80;99.90
6407;DHT22;3236;51.022;6.818;2022-12-24T12:02:24;11.90;99.90
6407;DHT22;3236;51.022;6.818;2022-12-24T12:04:55;11.90;99.90
6407;DHT22;3236;51.022;6.818;2022-12-24T12:07:27;11.70;99.90
6407;DHT22;3236;51.022;6.818;2022-12-24T12:10:02;11.70;99.90
6407;DHT22;3236;51.022;6.818;2022-12-24T12:12:35;11.50;99.90
6407;DHT22;3236;51.022;6.818;2022-12-24T12:15:09;11.80;99.90
6407;DHT22;3236;51.022;6.818;2022-12-24T12:17:46;11.70;99.90
6407;DHT22;3236;51.022;6.818;2022-12-24T12:20:20;12.80;99.90
6407;DHT22;3236;51.022;6.818;2022-12-24T12:22:53;12.40;99.90
6407;DHT22;3236;51.022;6.818;2022-12-24T12:25:27;12.00;99.90
6407;DHT22;3236;51.022;6.818;2022-12-24T12:30:25;11.90;99.90
6407;DHT22;3236;51.022;6.818;2022-12-24T12:35:28;12.00;99.90
6407;DHT22;3236;51.022;6.818;2022-12-24T12:38:00;11.80;99.90
6407;DHT22;3236;51.022;6.818;2022-12-24T12:40:54;11.90;99.90
6407;DHT22;3236;51.022;6.818;2022-12-24T12:43:36;11.80;99.90
6407;DHT22;3236;51.022;6.818;2022-12-24T12:46:13;13.10;99.90
6407;DHT22;3236;51.022;6.818;2022-12-24T12:49:07;11.70;99.90
6407;DHT22;3236;51.022;6.818;2022-12-24T12:51:46;11.50;99.90
6407;DHT22;3236;51.022;6.818;2022-12-24T12:54:31;11.90;99.90
6407;DHT22;3236;51.022;6.818;2022-12-24T12:57:04;11.90;99.90
6407;DHT22;3236;51.022;6.818;2022-12-24T12:59:36;14.30;99.90
6407;DHT22;3236;51.022;6.818;2022-12-24T13:11:35;16.50;99.90
6407;DHT22;3236;51.022;6.818;2022-12-24T13:14:34;15.70;99.90
6407;DHT22;3236;51.022;6.818;2022-12-24T13:17:35;15.50;99.90
6407;DHT22;3236;51.022;6.818;2022-12-24T13:20:13;15.30;99.90
6407;DHT22;3236;51.022;6.818;2022-12-24T13:25:20;15.20;99.90
6407;DHT22;3236;51.022;6.818;2022-12-24T13:27:51;14.70;99.90
6407;DHT22;3236;51.022;6.818;2022-12-24T13:30:36;14.90;99.90
6407;DHT22;3236;51.022;6.818;2022-12-24T13:33:08;15.30;99.90
6407;DHT22;3236;51.022;6.818;2022-12-24T13:35:38;15.20;99.90
6407;DHT22;3236;51.022;6.818;2022-12-24T13:38:32;15.50;99.90
6407;DHT22;3236;51.022;6.818;2022-12-24T13:44:29;15.80;99.90
6407;DHT22;3236;51.022;6.818;2022-12-24T13:47:17;15.70;99.90
6407;DHT22;3236;51.022;6.818;2022-12-24T13:49:52;15.20;99.90
6407;DHT22;3236;51.022;6.818;2022-12-24T13:52:26;14.80;99.90
6407;DHT22;3236;51.022;6.818;2022-12-24T13:55:14;15.20;99.90
6407;DHT22;3236;51.022;6.818;2022-12-24T13:58:02;15.00;99.90
6407;DHT22;3236;51.022;6.818;2022-12-24T14:00:38;14.80;99.90
6407;DHT22;3236;51.022;6.818;2022-12-24T14:03:26;14.70;99.90
6407;DHT22;3236;51.022;6.818;2022-12-24T14:05:57;14.70;99.90
6407;DHT22;3236;51.022;6.818;2022-12-24T14:08:30;13.40;99.90
6407;DHT22;3236;51.022;6.818;2022-12-24T14:11:13;13.20;99.90
6407;DHT22;3236;51.022;6.818;2022-12-24T14:14:09;13.30;99.90
6407;DHT22;3236;51.022;6.818;2022-12-24T14:16:50;12.70;99.90
6407;DHT22;3236;51.022;6.818;2022-12-24T14:19:20;13.00;99.90
6407;DHT22;3236;51.022;6.818;2022-12-24T14:21:55;12.60;99.90
6407;DHT22;3236;51.022;6.818;2022-12-24T14:24:26;13.00;99.90
6407;DHT22;3236;51.022;6.818;2022-12-24T14:26:58;13.10;99.90
6407;DHT22;3236;51.022;6.818;2022-12-24T14:29:28;12.50;99.90
6407;DHT22;3236;51.022;6.818;2022-12-24T14:32:11;12.70;99.90
6407;DHT22;3236;51.022;6.818;2022-12-24T14:34:42;12.00;99.90
6407;DHT22;3236;51.022;6.818;2022-12-24T14:37:11;11.80;99.90
6407;DHT22;3236;51.022;6.818;2022-12-24T14:39:41;11.60;99.90
6407;DHT22;3236;51.022;6.818;2022-12-24T14:42:24;11.80;99.90
6407;DHT22;3236;51.022;6.818;2022-12-24T14:45:02;11.90;99.90
6407;DHT22;3236;51.022;6.818;2022-12-24T14:47:44;11.30;99.90
6407;DHT22;3236;51.022;6.818;2022-12-24T14:50:50;11.30;99.90
6407;DHT22;3236;51.022;6.818;2022-12-24T14:53:44;11.20;99.90
6407;DHT22;3236;51.022;6.818;2022-12-24T14:56:22;10.90;99.90
6407;DHT22;3236;51.022;6.818;2022-12-24T14:58:50;10.80;99.90
6407;DHT22;3236;51.022;6.818;2022-12-24T15:01:21;10.40;99.90
6407;DHT22;3236;51.022;6.818;2022-12-24T15:04:01;10.60;99.90
6407;DHT22;3236;51.022;6.818;2022-12-24T15:06:32;10.50;99.90
6407;DHT22;3236;51.022;6.818;2022-12-24T15:09:03;10.10;99.90
6407;DHT22;3236;51.022;6.818;2022-12-24T15:11:37;10.30;99.90
6407;DHT22;3236;51.022;6.818;2022-12-24T15:14:12;9.70;99.90
6407;DHT22;3236;51.022;6.818;2022-12-24T15:16:40;10.10;99.90
6407;DHT22;3236;51.022;6.818;2022-12-24T15:19:17;10.10;99.90
6407;DHT22;3236;51.022;6.818;2022-12-24T15:21:53;10.10;99.90
6407;DHT22;3236;51.022;6.818;2022-12-24T15:24:25;9.80;99.90
6407;DHT22;3236;51.022;6.818;2022-12-24T15:26:53;10.30;99.90
6407;DHT22;3236;51.022;6.818;2022-12-24T15:29:24;10.10;99.90
6407;DHT22;3236;51.022;6.818;2022-12-24T15:31:53;9.90;99.90
6407;DHT22;3236;51.022;6.818;2022-12-24T15:34:35;10.00;99.90
6407;DHT22;3236;51.022;6.818;2022-12-24T15:37:05;9.70;99.90
6407;DHT22;3236;51.022;6.818;2022-12-24T15:39:33;9.90;99.90
6407;DHT22;3236;51.022;6.818;2022-12-24T15:42:06;9.80;99.90
6407;DHT22;3236;51.022;6.818;2022-12-24T15:44:48;9.50;99.90
6407;DHT22;3236;51.022;6.818;2022-12-24T15:47:19;10.10;99.90
6407;DHT22;3236;51.022;6.818;2022-12-24T15:49:51;9.90;99.90
6407;DHT22;3236;51.022;6.818;2022-12-24T15:52:21;9.80;99.90
6407;DHT22;3236;51.022;6.818;2022-12-24T15:54:51;10.10;99.90
6407;DHT22;3236;51.022;6.818;2022-12-24T15:57:24;9.60;99.90
6407;DHT22;3236;51.022;6.818;2022-12-24T15:59:53;9.70;99.90
6407;DHT22;3236;51.022;6.818;2022-12-24T16:02:42;9.90;99.90
6407;DHT22;3236;51.022;6.818;2022-12-24T16:05:35;9.60;99.90
6407;DHT22;3236;51.022;6.818;2022-12-24T16:08:27;9.60;99.90
6407;DHT22;3236;51.022;6.818;2022-12-24T16:11:08;9.50;99.90
6407;DHT22;3236;51.022;6.818;2022-12-24T16:13:36;9.70;99.90
6407;DHT22;3236;51.022;6.818;2022-12-24T16:16:06;9.40;99.90
6407;DHT22;3236;51.022;6.818;2022-12-24T16:18:43;9.40;99.90
6407;DHT22;3236;51.022;6.818;2022-12-24T16:21:23;9.40;99.90
6407;DHT22;3236;51.022;6.818;2022-12-24T16:23:53;9.70;99.90
6407;DHT22;3236;51.022;6.818;2022-12-24T16:26:21;8.80;99.90
6407;DHT22;3236;51.022;6.818;2022-12-24T16:28:48;7.90;99.90
6407;DHT22;3236;51.022;6.818;2022-12-24T16:31:17;9.20;99.90
6407;DHT22;3236;51.022;6.818;2022-12-24T16:33:44;8.60;99.90
6407;DHT22;3236;51.022;6.818;2022-12-24T16:36:15;8.90;99.90
6407;DHT22;3236;51.022;6.818;2022-12-24T16:38:43;8.70;99.90
6407;DHT22;3236;51.022;6.818;2022-12-24T16:41:36;8.50;99.90
6407;DHT22;3236;51.022;6.818;2022-12-24T16:44:17;9.50;99.90
6407;DHT22;3236;51.022;6.818;2022-12-24T16:46:46;8.40;99.90
6407;DHT22;3236;51.022;6.818;2022-12-24T16:49:16;8.40;99.90
6407;DHT22;3236;51.022;6.818;2022-12-24T16:51:44;7.90;99.90
6407;DHT22;3236;51.022;6.818;2022-12-24T16:56:44;8.40;99.90
6407;DHT22;3236;51.022;6.818;2022-12-24T16:59:15;7.60;99.90
6407;DHT22;3236;51.022;6.818;2022-12-24T17:01:43;7.40;99.90
6407;DHT22;3236;51.022;6.818;2022-12-24T17:04:14;6.50;99.90
6407;DHT22;3236;51.022;6.818;2022-12-24T17:06:44;7.40;99.90
6407;DHT22;3236;51.022;6.818;2022-12-24T17:09:23;7.50;99.90
6407;DHT22;3236;51.022;6.818;2022-12-24T17:11:56;7.60;99.90
6407;DHT22;3236;51.022;6.818;2022-12-24T17:21:46;7.00;99.90
6407;DHT22;3236;51.022;6.818;2022-12-24T17:24:14;7.00;99.90
6407;DHT22;3236;51.022;6.818;2022-12-24T17:26:45;6.90;99.90
6407;DHT22;3236;51.022;6.818;2022-12-24T17:29:12;6.90;99.90
6407;DHT22;3236;51.022;6.818;2022-12-24T17:31:39;6.80;99.90
6407;DHT22;3236;51.022;6.818;2022-12-24T17:34:08;6.80;99.90
6407;DHT22;3236;51.022;6.818;2022-12-24T17:36:35;6.80;99.90
6407;DHT22;3236;51.022;6.818;2022-12-24T17:39:02;6.80;99.90
6407;DHT22;3236;51.022;6.818;2022-12-24T17:41:29;6.60;99.90
6407;DHT22;3236;51.022;6.818;2022-12-24T17:44:04;6.70;99.90
6407;DHT22;3236;51.022;6.818;2022-12-24T17:56:25;6.80;99.90
6407;DHT22;3236;51.022;6.818;2022-12-24T17:58:53;6.90;99.90
6407;DHT22;3236;51.022;6.818;2022-12-24T18:01:24;6.90;99.90
6407;DHT22;3236;51.022;6.818;2022-12-24T18:03:51;6.60;99.90
6407;DHT22;3236;51.022;6.818;2022-12-24T18:06:21;6.90;99.90
6407;DHT22;3236;51.022;6.818;2022-12-24T18:08:48;6.80;99.90
6407;DHT22;3236;51.022;6.818;2022-12-24T18:11:18;7.40;99.90
6407;DHT22;3236;51.022;6.818;2022-12-24T18:13:46;7.10;99.90
6407;DHT22;3236;51.022;6.818;2022-12-24T18:16:15;7.30;99.90
6407;DHT22;3236;51.022;6.818;2022-12-24T18:18:44;7.30;99.90
6407;DHT22;3236;51.022;6.818;2022-12-24T18:21:11;7.10;99.90
6407;DHT22;3236;51.022;6.818;2022-12-24T18:23:42;7.20;99.90
6407;DHT22;3236;51.022;6.818;2022-12-24T18:26:10;7.20;99.90
6407;DHT22;3236;51.022;6.818;2022-12-24T18:28:38;7.30;99.90
6407;DHT22;3236;51.022;6.818;2022-12-24T18:31:09;7.30;99.90
6407;DHT22;3236;51.022;6.818;2022-12-24T18:33:37;7.50;99.90
6407;DHT22;3236;51.022;6.818;2022-12-24T18:36:09;7.60;99.90
6407;DHT22;3236;51.022;6.818;2022-12-24T18:38:37;7.70;99.90
6407;DHT22;3236;51.022;6.818;2022-12-24T18:41:05;7.90;99.90
6407;DHT22;3236;51.022;6.818;2022-12-24T18:43:34;8.00;99.90
6407;DHT22;3236;51.022;6.818;2022-12-24T18:48:33;7.60;99.90
6407;DHT22;3236;51.022;6.818;2022-12-24T18:51:00;7.60;99.90
6407;DHT22;3236;51.022;6.818;2022-12-24T18:53:29;7.50;99.90
6407;DHT22;3236;51.022;6.818;2022-12-24T18:56:03;7.40;99.90
6407;DHT22;3236;51.022;6.818;2022-12-24T18:58:31;7.40;99.90
6407;DHT22;3236;51.022;6.818;2022-12-24T19:00:58;7.80;99.90
6407;DHT22;3236;51.022;6.818;2022-12-24T19:03:25;6.80;99.90
6407;DHT22;3236;51.022;6.818;2022-12-24T19:05:52;7.30;99.90
6407;DHT22;3236;51.022;6.818;2022-12-24T19:08:19;7.80;99.90
6407;DHT22;3236;51.022;6.818;2022-12-24T19:10:48;7.50;99.90
6407;DHT22;3236;51.022;6.818;2022-12-24T19:13:15;7.50;99.90
6407;DHT22;3236;51.022;6.818;2022-12-24T19:15:42;7.40;99.90
6407;DHT22;3236;51.022;6.818;2022-12-24T19:18:13;7.40;99.90
6407;DHT22;3236;51.022;6.818;2022-12-24T19:20:40;7.10;99.90
6407;DHT22;3236;51.022;6.818;2022-12-24T19:23:07;7.20;99.90
6407;DHT22;3236;51.022;6.818;2022-12-24T19:25:35;7.30;99.90
6407;DHT22;3236;51.022;6.818;2022-12-24T19:28:04;7.00;99.90
6407;DHT22;3236;51.022;6.818;2022-12-24T19:30:34;7.00;99.90
6407;DHT22;3236;51.022;6.818;2022-12-24T19:33:01;7.00;99.90
6407;DHT22;3236;51.022;6.818;2022-12-24T19:35:29;7.00;99.90
6407;DHT22;3236;51.022;6.818;2022-12-24T19:37:56;6.90;99.90
6407;DHT22;3236;51.022;6.818;2022-12-24T19:40:23;6.90;99.90
6407;DHT22;3236;51.022;6.818;2022-12-24T19:42:50;7.10;99.90
6407;DHT22;3236;51.022;6.818;2022-12-24T19:45:20;6.80;99.90
6407;DHT22;3236;51.022;6.818;2022-12-24T19:47:48;6.80;99.90
6407;DHT22;3236;51.022;6.818;2022-12-24T19:50:17;6.50;99.90